createdAt,value
2023-02-03T00:01:27.861Z,11.50
2023-02-03T00:03:55.979Z,11.50
2023-02-03T00:06:25.474Z,11.50
2023-02-03T00:08:55.178Z,11.50
2023-02-03T00:11:23.345Z,11.50
2023-02-03T00:13:51.450Z,11.50
2023-02-03T00:16:19.619Z,11.50
2023-02-03T00:18:47.728Z,11.50
2023-02-03T00:21:16.305Z,11.50
2023-02-03T00:23:45.733Z,11.50
2023-02-03T00:26:15.676Z,11.50
2023-02-03T00:28:44.785Z,11.50
2023-02-03T00:31:17.456Z,11.50
2023-02-03T00:33:47.615Z,11.50
2023-02-03T00:36:15.783Z,11.60
2023-02-03T00:38:45.333Z,11.60
2023-02-03T00:41:13.434Z,11.60
2023-02-03T00:43:41.607Z,11.60
2023-02-03T00:46:09.824Z,11.60
2023-02-03T00:48:37.942Z,11.60
2023-02-03T00:51:06.718Z,11.60
2023-02-03T00:53:35.213Z,11.60
2023-02-03T00:56:04.858Z,11.60
2023-02-03T00:58:33.063Z,11.60
2023-02-03T01:01:01.223Z,11.60
2023-02-03T01:03:29.385Z,11.60
2023-02-03T01:05:57.555Z,11.60
2023-02-03T01:08:26.858Z,11.60
2023-02-03T01:10:55.166Z,11.60
2023-02-03T01:13:24.777Z,11.60
2023-02-03T01:15:53.137Z,11.60
2023-02-03T01:18:21.924Z,11.60
2023-02-03T01:20:50.261Z,11.60
2023-02-03T01:23:18.372Z,11.60
2023-02-03T01:25:46.486Z,11.60
2023-02-03T01:28:14.746Z,11.50
2023-02-03T01:30:44.351Z,11.50
2023-02-03T01:33:13.379Z,11.50
2023-02-03T01:35:41.433Z,11.50
2023-02-03T01:38:12.122Z,11.50
2023-02-03T01:40:44.542Z,11.50
2023-02-03T01:43:12.691Z,11.50
2023-02-03T01:45:40.873Z,11.50
2023-02-03T01:48:10.416Z,11.50
2023-02-03T01:50:38.702Z,11.50
2023-02-03T01:53:09.572Z,11.50
2023-02-03T01:55:41.262Z,11.50
2023-02-03T01:58:11.385Z,11.50
2023-02-03T02:00:39.539Z,11.50
2023-02-03T02:03:07.691Z,11.50
2023-02-03T02:05:39.981Z,11.50
2023-02-03T02:08:08.081Z,11.50
2023-02-03T02:10:36.423Z,11.50
2023-02-03T02:13:04.720Z,11.50
2023-02-03T02:15:39.669Z,11.50
2023-02-03T02:18:38.689Z,11.50
2023-02-03T02:21:45.823Z,11.50
2023-02-03T02:24:53.915Z,11.50
2023-02-03T02:28:26.074Z,11.60
2023-02-03T02:31:19.003Z,11.60
2023-02-03T02:33:51.264Z,11.60
2023-02-03T02:36:25.311Z,11.60
2023-02-03T02:38:58.616Z,11.60
2023-02-03T02:41:31.063Z,11.60
2023-02-03T02:44:02.008Z,11.60
2023-02-03T02:46:34.052Z,11.60
2023-02-03T02:49:07.871Z,11.50
2023-02-03T02:51:36.083Z,11.50
2023-02-03T02:54:06.677Z,11.50
2023-02-03T02:56:35.701Z,11.50
2023-02-03T02:59:04.928Z,11.50
2023-02-03T03:01:33.102Z,11.50
2023-02-03T03:04:04.992Z,11.50
2023-02-03T03:06:37.127Z,11.40
2023-02-03T03:09:07.219Z,11.40
2023-02-03T03:11:38.025Z,11.40
2023-02-03T03:14:06.394Z,11.40
2023-02-03T03:16:36.007Z,11.40
2023-02-03T03:19:08.025Z,11.40
2023-02-03T03:21:39.277Z,11.40
2023-02-03T03:24:10.498Z,11.30
2023-02-03T03:26:42.714Z,11.30
2023-02-03T03:29:14.827Z,11.40
2023-02-03T03:31:43.016Z,11.30
2023-02-03T03:34:13.103Z,11.30
2023-02-03T03:36:43.732Z,11.30
2023-02-03T03:39:18.700Z,11.30
2023-02-03T03:41:55.310Z,11.30
2023-02-03T03:44:23.571Z,11.30
2023-02-03T03:46:56.872Z,11.20
2023-02-03T03:49:26.383Z,11.20
2023-02-03T03:51:57.385Z,11.20
2023-02-03T03:54:25.696Z,11.10
2023-02-03T03:56:58.050Z,11.10
2023-02-03T03:59:26.926Z,11.00
2023-02-03T04:01:55.178Z,11.00
2023-02-03T04:04:23.343Z,11.00
2023-02-03T04:06:54.334Z,11.00
2023-02-03T04:09:22.472Z,11.00
2023-02-03T04:12:02.917Z,10.90
2023-02-03T04:14:31.539Z,10.90
2023-02-03T04:16:59.826Z,10.90
2023-02-03T04:19:28.115Z,10.90
2023-02-03T04:21:57.845Z,10.90
2023-02-03T04:24:26.391Z,10.90
2023-02-03T04:26:54.541Z,10.90
2023-02-03T04:29:22.676Z,10.90
2023-02-03T04:31:50.860Z,10.90
2023-02-03T04:34:19.034Z,10.90
2023-02-03T04:36:47.373Z,10.90
2023-02-03T04:39:16.795Z,11.00
2023-02-03T04:41:44.942Z,10.90
2023-02-03T04:44:13.321Z,10.90
2023-02-03T04:46:41.372Z,10.90
2023-02-03T04:49:11.609Z,11.00
2023-02-03T04:51:39.780Z,11.00
2023-02-03T04:54:08.047Z,11.00
2023-02-03T04:56:37.585Z,11.00
2023-02-03T04:59:05.719Z,11.00
2023-02-03T05:01:33.867Z,11.00
2023-02-03T05:04:02.040Z,11.00
2023-02-03T05:06:32.037Z,11.00
2023-02-03T05:09:00.188Z,11.00
2023-02-03T05:11:28.769Z,11.10
2023-02-03T05:13:58.660Z,11.00
2023-02-03T05:16:26.880Z,11.00
2023-02-03T05:18:55.042Z,11.00
2023-02-03T05:21:23.132Z,11.00
2023-02-03T05:23:51.260Z,11.00
2023-02-03T05:26:19.419Z,11.00
2023-02-03T05:28:47.523Z,11.00
2023-02-03T05:31:17.046Z,11.00
2023-02-03T05:33:45.184Z,11.00
2023-02-03T05:36:13.325Z,11.00
2023-02-03T05:38:42.402Z,11.10
2023-02-03T05:41:29.256Z,11.10
2023-02-03T05:43:57.334Z,11.20
2023-02-03T05:46:26.803Z,11.20
2023-02-03T05:48:54.988Z,11.30
2023-02-03T05:51:23.457Z,11.30
2023-02-03T05:53:51.558Z,11.40
2023-02-03T05:56:19.661Z,11.40
2023-02-03T05:58:47.752Z,11.50
2023-02-03T06:01:15.877Z,11.50
2023-02-03T06:03:46.443Z,11.50
2023-02-03T06:06:14.734Z,11.50
2023-02-03T06:08:42.837Z,11.60
2023-02-03T06:11:11.032Z,11.60
2023-02-03T06:13:39.215Z,11.60
2023-02-03T06:16:07.775Z,11.60
2023-02-03T06:18:35.916Z,11.60
2023-02-03T06:21:06.012Z,11.60
2023-02-03T06:23:34.313Z,11.70
2023-02-03T06:26:02.443Z,11.60
2023-02-03T06:28:33.450Z,11.70
2023-02-03T06:31:01.789Z,11.70
2023-02-03T06:33:30.019Z,11.70
2023-02-03T06:35:58.271Z,11.70
2023-02-03T06:38:27.779Z,11.70
2023-02-03T06:40:55.982Z,11.70
2023-02-03T06:43:24.097Z,11.60
2023-02-03T06:45:52.496Z,11.60
2023-02-03T06:48:20.665Z,11.60
2023-02-03T06:50:48.981Z,11.60
2023-02-03T06:53:17.234Z,11.60
2023-02-03T06:55:47.900Z,11.70
2023-02-03T06:58:16.168Z,11.70
2023-02-03T07:00:44.432Z,11.70
2023-02-03T07:03:12.552Z,11.70
2023-02-03T07:05:40.905Z,11.80
2023-02-03T07:08:09.091Z,11.80
2023-02-03T07:10:37.300Z,11.80
2023-02-03T07:13:07.455Z,11.80
2023-02-03T07:15:35.856Z,11.80
2023-02-03T07:18:04.640Z,11.80
2023-02-03T07:20:33.152Z,11.90
2023-02-03T07:23:01.392Z,11.90
2023-02-03T07:25:29.975Z,11.90
2023-02-03T07:27:58.139Z,11.90
2023-02-03T07:30:28.037Z,11.90
2023-02-03T07:32:56.380Z,11.90
2023-02-03T07:35:25.442Z,11.90
2023-02-03T07:37:53.624Z,11.90
2023-02-03T07:40:22.019Z,11.90
2023-02-03T07:42:50.505Z,11.90
2023-02-03T07:45:19.474Z,11.90
2023-02-03T07:47:49.046Z,11.90
2023-02-03T07:50:17.261Z,12.00
2023-02-03T07:52:45.471Z,11.90
2023-02-03T07:55:13.712Z,11.90
2023-02-03T07:57:43.613Z,11.90
2023-02-03T08:00:14.294Z,11.90
2023-02-03T08:02:42.612Z,11.90
2023-02-03T08:05:12.430Z,11.80
2023-02-03T08:07:40.715Z,11.80
2023-02-03T08:10:10.049Z,11.80
2023-02-03T08:12:38.215Z,11.70
2023-02-03T08:15:08.610Z,11.70
2023-02-03T08:17:36.796Z,11.70
2023-02-03T08:20:06.161Z,11.60
2023-02-03T08:22:35.671Z,11.60
2023-02-03T08:25:03.940Z,11.60
2023-02-03T08:27:33.071Z,11.50
2023-02-03T08:30:01.313Z,11.50
2023-02-03T08:32:29.549Z,11.50
2023-02-03T08:34:57.681Z,11.50
2023-02-03T08:37:25.985Z,11.40
2023-02-03T08:39:55.635Z,11.40
2023-02-03T08:42:23.933Z,11.40
2023-02-03T08:44:52.030Z,11.40
2023-02-03T08:47:20.216Z,11.40
2023-02-03T08:49:48.358Z,11.50
2023-02-03T08:52:18.823Z,11.50
2023-02-03T08:54:47.642Z,11.60
2023-02-03T08:57:17.199Z,11.60
2023-02-03T08:59:45.398Z,11.70
2023-02-03T09:02:16.364Z,11.70
2023-02-03T09:04:44.685Z,11.80
2023-02-03T09:07:13.341Z,11.90
2023-02-03T09:09:41.571Z,11.90
2023-02-03T09:12:11.671Z,11.90
2023-02-03T09:14:41.325Z,12.00
2023-02-03T09:17:10.361Z,12.00
2023-02-03T09:19:38.572Z,12.00
2023-02-03T09:22:06.912Z,12.10
2023-02-03T09:24:35.297Z,12.10
2023-02-03T09:27:04.182Z,12.10
2023-02-03T09:29:32.441Z,12.20
2023-02-03T09:32:07.071Z,12.20
2023-02-03T09:34:35.311Z,12.20
2023-02-03T09:37:04.216Z,12.20
2023-02-03T09:39:32.590Z,12.20
2023-02-03T09:42:10.124Z,12.20
2023-02-03T09:44:42.826Z,12.20
2023-02-03T09:47:15.743Z,12.20
2023-02-03T09:49:47.153Z,12.30
2023-02-03T09:52:17.580Z,12.30
2023-02-03T09:54:50.743Z,12.30
2023-02-03T09:57:22.433Z,12.30
2023-02-03T09:59:50.766Z,12.30
2023-02-03T10:02:39.903Z,12.30
2023-02-03T10:05:14.955Z,12.40
2023-02-03T10:07:49.260Z,12.40
2023-02-03T10:10:22.763Z,12.40
2023-02-03T10:13:03.528Z,12.40
2023-02-03T10:16:19.762Z,12.50
2023-02-03T10:18:51.892Z,12.50
2023-02-03T10:21:24.866Z,12.50
2023-02-03T10:23:54.983Z,12.50
2023-02-03T10:26:24.933Z,12.60
2023-02-03T10:28:55.682Z,12.60
2023-02-03T10:31:27.559Z,12.60
2023-02-03T10:34:01.532Z,12.60
2023-02-03T10:36:39.102Z,12.60
2023-02-03T10:39:16.697Z,12.60
2023-02-03T10:41:44.865Z,12.60
2023-02-03T10:44:14.452Z,12.60
2023-02-03T10:46:43.201Z,12.60
2023-02-03T10:49:13.385Z,12.70
2023-02-03T10:51:44.285Z,12.60
2023-02-03T10:54:29.245Z,12.60
2023-02-03T10:56:59.358Z,12.60
2023-02-03T10:59:30.722Z,12.70
2023-02-03T11:01:58.942Z,12.70
2023-02-03T11:04:29.883Z,12.70
2023-02-03T11:07:01.507Z,12.70
2023-02-03T11:09:33.323Z,12.70
2023-02-03T11:12:09.654Z,12.70
2023-02-03T11:14:38.882Z,12.70
2023-02-03T11:17:09.053Z,12.70
2023-02-03T11:19:39.229Z,12.70
2023-02-03T11:22:07.426Z,12.70
2023-02-03T11:24:39.662Z,12.70
2023-02-03T11:27:10.701Z,12.70
2023-02-03T11:29:40.152Z,12.70
2023-02-03T11:32:17.161Z,12.70
2023-02-03T11:34:55.126Z,12.70
2023-02-03T11:37:29.514Z,12.70
2023-02-03T11:39:58.303Z,12.70
2023-02-03T11:42:26.616Z,12.70
2023-02-03T11:45:10.895Z,12.70
2023-02-03T11:47:39.117Z,12.70
2023-02-03T11:50:27.624Z,12.70
2023-02-03T11:53:11.095Z,12.70
2023-02-03T11:55:49.756Z,12.70
2023-02-03T11:58:58.446Z,12.60
2023-02-03T12:01:46.672Z,12.60
2023-02-03T12:04:26.995Z,12.60
2023-02-03T12:07:14.891Z,12.60
2023-02-03T12:09:49.628Z,12.60
2023-02-03T12:12:35.296Z,12.60
2023-02-03T12:15:15.976Z,12.60
2023-02-03T12:17:53.600Z,12.60
2023-02-03T12:20:44.711Z,12.60
2023-02-03T12:23:23.975Z,12.60
2023-02-03T12:26:06.361Z,12.60
2023-02-03T12:28:46.090Z,12.60
2023-02-03T12:31:18.272Z,12.50
2023-02-03T12:33:49.779Z,12.50
2023-02-03T12:36:22.152Z,12.50
2023-02-03T12:38:55.288Z,12.50
2023-02-03T12:41:26.403Z,12.50
2023-02-03T12:43:56.996Z,12.50
2023-02-03T12:46:27.282Z,12.50
2023-02-03T12:48:58.937Z,12.50
2023-02-03T12:51:35.454Z,12.50
2023-02-03T12:54:07.778Z,12.60
2023-02-03T12:56:40.830Z,12.60
2023-02-03T12:59:15.970Z,12.60
2023-02-03T13:01:47.598Z,12.60
2023-02-03T13:04:22.095Z,12.60
2023-02-03T13:06:53.937Z,12.60
2023-02-03T13:09:30.914Z,12.60
2023-02-03T13:12:04.367Z,12.60
2023-02-03T13:14:35.727Z,12.60
2023-02-03T13:17:08.157Z,12.60
2023-02-03T13:19:41.760Z,12.60
2023-02-03T13:22:12.883Z,12.60
2023-02-03T13:24:42.619Z,12.60
2023-02-03T13:27:29.439Z,12.60
2023-02-03T13:30:21.207Z,12.60
2023-02-03T13:33:40.923Z,12.70
2023-02-03T13:36:22.295Z,12.70
2023-02-03T13:39:16.293Z,12.70
2023-02-03T13:41:49.955Z,12.70
2023-02-03T13:44:20.490Z,12.70
2023-02-03T13:46:49.454Z,12.70
2023-02-03T13:49:23.709Z,12.70
2023-02-03T13:51:51.873Z,12.70
2023-02-03T13:54:28.862Z,12.60
2023-02-03T13:57:01.340Z,12.60
2023-02-03T13:59:40.758Z,12.60
2023-02-03T14:02:40.328Z,12.60
2023-02-03T14:05:11.301Z,12.60
2023-02-03T14:07:40.402Z,12.60
2023-02-03T14:10:23.365Z,12.60
2023-02-03T14:13:00.239Z,12.60
2023-02-03T14:15:34.539Z,12.60
2023-02-03T14:18:32.093Z,12.60
2023-02-03T14:21:21.953Z,12.60
2023-02-03T14:24:09.638Z,12.60
2023-02-03T14:26:41.449Z,12.60
2023-02-03T14:29:12.501Z,12.60
2023-02-03T14:31:59.128Z,12.60
2023-02-03T14:34:38.242Z,12.60
2023-02-03T14:37:20.837Z,12.60
2023-02-03T14:40:28.817Z,12.60
2023-02-03T14:43:21.304Z,12.60
2023-02-03T14:46:38.281Z,12.60
2023-02-03T14:49:24.841Z,12.60
2023-02-03T14:52:08.340Z,12.70
2023-02-03T14:54:50.998Z,12.70
2023-02-03T14:57:30.316Z,12.60
2023-02-03T15:00:00.475Z,12.60
2023-02-03T15:02:31.227Z,12.70
2023-02-03T15:05:36.868Z,12.70
2023-02-03T15:08:05.492Z,12.70
2023-02-03T15:10:43.254Z,12.70
2023-02-03T15:13:27.356Z,12.70
2023-02-03T15:15:56.787Z,12.70
2023-02-03T15:18:30.865Z,12.70
2023-02-03T15:20:59.586Z,12.70
2023-02-03T15:23:31.153Z,12.70
2023-02-03T15:26:01.507Z,12.70
2023-02-03T15:28:31.009Z,12.70
2023-02-03T15:31:02.411Z,12.70
2023-02-03T15:33:32.620Z,12.70
2023-02-03T15:36:02.884Z,12.60
2023-02-03T15:38:35.678Z,12.70
2023-02-03T15:41:03.843Z,12.60
2023-02-03T15:43:33.750Z,12.60
2023-02-03T15:46:07.361Z,12.60
2023-02-03T15:48:40.175Z,12.60
2023-02-03T15:51:11.561Z,12.60
2023-02-03T15:53:47.968Z,12.60
2023-02-03T15:56:26.253Z,12.60
2023-02-03T15:58:54.492Z,12.60
2023-02-03T16:01:26.099Z,12.60
2023-02-03T16:03:56.473Z,12.60
2023-02-03T16:06:27.482Z,12.60
2023-02-03T16:08:56.343Z,12.60
2023-02-03T16:11:34.120Z,12.60
2023-02-03T16:14:04.576Z,12.60
2023-02-03T16:16:37.527Z,12.60
2023-02-03T16:19:13.197Z,12.60
2023-02-03T16:21:53.429Z,12.60
2023-02-03T16:24:40.291Z,12.60
2023-02-03T16:27:22.929Z,12.60
2023-02-03T16:30:08.830Z,12.60
2023-02-03T16:32:54.862Z,12.60
2023-02-03T16:35:42.443Z,12.60
2023-02-03T16:38:33.681Z,12.60
2023-02-03T16:41:19.844Z,12.60
2023-02-03T16:44:05.705Z,12.60
2023-02-03T16:46:51.824Z,12.60
2023-02-03T16:49:37.872Z,12.60
2023-02-03T16:52:08.663Z,12.60
2023-02-03T16:54:37.302Z,12.60
2023-02-03T16:57:05.927Z,12.60
2023-02-03T16:59:35.238Z,12.60
2023-02-03T17:02:03.495Z,12.60
2023-02-03T17:04:31.722Z,12.60
2023-02-03T17:07:00.317Z,12.60
2023-02-03T17:09:32.203Z,12.60
2023-02-03T17:12:00.393Z,12.60
2023-02-03T17:14:28.948Z,12.60
2023-02-03T17:16:57.175Z,12.60
2023-02-03T17:19:25.249Z,12.60
2023-02-03T17:21:53.347Z,12.50
2023-02-03T17:24:21.461Z,12.50
2023-02-03T17:26:52.595Z,12.50
2023-02-03T17:29:20.774Z,12.50
2023-02-03T17:31:48.910Z,12.50
2023-02-03T17:34:17.107Z,12.50
2023-02-03T17:36:45.230Z,12.50
2023-02-03T17:55:31.701Z,12.40
2023-02-03T17:58:01.367Z,12.40
2023-02-03T18:00:29.761Z,12.40
2023-02-03T18:02:58.083Z,12.40
2023-02-03T18:05:26.263Z,12.40
2023-02-03T18:07:54.354Z,12.40
2023-02-03T18:10:22.739Z,12.40
2023-02-03T18:12:50.935Z,12.40
2023-02-03T18:15:20.449Z,12.40
2023-02-03T18:17:48.611Z,12.40
2023-02-03T18:20:17.025Z,12.40
2023-02-03T18:22:45.631Z,12.40
2023-02-03T18:25:17.081Z,12.40
2023-02-03T18:27:45.317Z,12.40
2023-02-03T18:30:15.301Z,12.40
2023-02-03T18:32:45.098Z,12.40
2023-02-03T18:35:16.740Z,12.40
2023-02-03T18:37:44.926Z,12.40
2023-02-03T18:40:13.360Z,12.40
2023-02-03T18:42:41.516Z,12.40
2023-02-03T18:45:11.219Z,12.40
2023-02-03T18:47:39.373Z,12.40
2023-02-03T18:50:09.872Z,12.40
2023-02-03T18:52:38.708Z,12.40
2023-02-03T18:55:07.929Z,12.40
2023-02-03T18:57:36.100Z,12.40
2023-02-03T19:00:06.212Z,12.40
2023-02-03T19:02:35.023Z,12.50
2023-02-03T19:05:04.191Z,12.50
2023-02-03T19:07:33.761Z,12.50
2023-02-03T19:10:01.896Z,12.50
2023-02-03T19:12:30.046Z,12.50
2023-02-03T19:14:58.189Z,12.50
2023-02-03T19:17:26.310Z,12.50
2023-02-03T19:19:54.409Z,12.50
2023-02-03T19:22:22.523Z,12.50
2023-02-03T19:24:51.984Z,12.50
2023-02-03T19:27:20.088Z,12.50
2023-02-03T19:29:48.159Z,12.50
2023-02-03T19:32:16.347Z,12.50
2023-02-03T19:34:44.521Z,12.50
2023-02-03T19:37:13.072Z,12.60
2023-02-03T19:39:41.326Z,12.60
2023-02-03T19:42:11.719Z,12.50
2023-02-03T19:44:39.948Z,12.50
2023-02-03T19:47:08.109Z,12.50
2023-02-03T19:49:36.256Z,12.50
2023-02-03T19:52:05.257Z,12.50
2023-02-03T19:54:33.423Z,12.50
2023-02-03T19:57:01.847Z,12.50
2023-02-03T19:59:31.358Z,12.50
2023-02-03T20:02:04.060Z,12.40
2023-02-03T20:04:37.724Z,12.40
2023-02-03T20:07:05.865Z,12.40
2023-02-03T20:09:33.991Z,12.40
2023-02-03T20:12:02.116Z,12.40
2023-02-03T20:14:32.583Z,12.40
2023-02-03T20:17:00.757Z,12.40
2023-02-03T20:19:28.974Z,12.30
2023-02-03T20:21:57.314Z,12.30
2023-02-03T20:24:25.542Z,12.30
2023-02-03T20:26:53.684Z,12.30
2023-02-03T20:29:21.796Z,12.20
2023-02-03T20:31:53.062Z,12.20
2023-02-03T20:34:21.326Z,12.20
2023-02-03T20:36:49.535Z,12.20
2023-02-03T20:39:19.233Z,12.20
2023-02-03T20:41:49.600Z,12.20
2023-02-03T20:44:18.228Z,12.20
2023-02-03T20:46:46.554Z,12.20
2023-02-03T20:49:17.591Z,12.20
2023-02-03T20:51:45.736Z,12.20
2023-02-03T20:54:17.448Z,12.20
2023-02-03T20:56:45.756Z,12.20
2023-02-03T20:59:14.175Z,12.20
2023-02-03T21:01:42.493Z,12.10
2023-02-03T21:04:34.316Z,12.10
2023-02-03T21:07:02.534Z,12.20
2023-02-03T21:09:30.717Z,12.10
2023-02-03T21:11:58.877Z,12.10
2023-02-03T21:14:30.565Z,12.10
2023-02-03T21:16:58.752Z,12.10
2023-02-03T21:19:32.741Z,12.10
2023-02-03T21:22:00.971Z,12.10
2023-02-03T21:24:30.554Z,12.10
2023-02-03T21:26:58.867Z,12.10
2023-02-03T21:29:27.882Z,12.10
2023-02-03T21:31:56.179Z,12.10
2023-02-03T21:34:30.550Z,12.10
2023-02-03T21:36:59.081Z,12.10
2023-02-03T21:39:29.322Z,12.20
2023-02-03T21:41:57.839Z,12.20
2023-02-03T21:44:31.048Z,12.20
2023-02-03T21:46:59.798Z,12.20
2023-02-03T21:49:29.084Z,12.20
2023-02-03T21:51:58.832Z,12.20
2023-02-03T21:54:30.158Z,12.20
2023-02-03T21:56:58.578Z,12.20
2023-02-03T21:59:29.895Z,12.20
2023-02-03T22:01:58.634Z,12.20
2023-02-03T22:04:27.302Z,12.20
2023-02-03T22:06:55.801Z,12.20
2023-02-03T22:09:26.388Z,12.20
2023-02-03T22:11:54.650Z,12.20
2023-02-03T22:14:22.848Z,12.20
2023-02-03T22:16:51.012Z,12.20
2023-02-03T22:19:19.136Z,12.20
2023-02-03T22:21:48.508Z,12.20
2023-02-03T22:24:16.664Z,12.30
2023-02-03T22:26:46.215Z,12.30
2023-02-03T22:29:14.359Z,12.30
2023-02-03T22:31:42.709Z,12.30
2023-02-03T22:34:11.025Z,12.30
2023-02-03T22:36:39.250Z,12.30
2023-02-03T22:39:07.367Z,12.30
2023-02-03T22:41:35.470Z,12.30
2023-02-03T22:44:05.274Z,12.30
2023-02-03T22:46:33.432Z,12.30
2023-02-03T22:49:02.192Z,12.30
2023-02-03T22:51:30.295Z,12.30
2023-02-03T22:53:58.330Z,12.30
2023-02-03T22:56:26.529Z,12.40
2023-02-03T22:58:54.636Z,12.40
2023-02-03T23:01:24.072Z,12.40
2023-02-03T23:03:52.310Z,12.40
2023-02-03T23:06:20.446Z,12.40
2023-02-03T23:08:48.528Z,12.40
2023-02-03T23:11:16.703Z,12.50
2023-02-03T23:13:44.824Z,12.50
2023-02-03T23:16:13.054Z,12.50
2023-02-03T23:18:42.609Z,12.50
2023-02-03T23:21:10.741Z,12.50
2023-02-03T23:23:38.883Z,12.60
2023-02-03T23:26:07.197Z,12.60
2023-02-03T23:28:35.356Z,12.60
2023-02-03T23:31:04.036Z,12.60
2023-02-03T23:33:32.277Z,12.60
2023-02-03T23:36:00.751Z,12.60
2023-02-03T23:38:28.917Z,12.60
2023-02-03T23:40:57.082Z,12.70
2023-02-03T23:43:25.273Z,12.70
2023-02-03T23:45:53.386Z,12.70
2023-02-03T23:48:21.523Z,12.70
2023-02-03T23:50:50.050Z,12.70
2023-02-03T23:53:19.509Z,12.70
2023-02-03T23:55:47.621Z,12.70
2023-02-03T23:58:15.758Z,12.70
